createdAt,value
2022-11-06T00:04:32.114Z,7.97
2022-11-06T00:09:35.098Z,8.50
2022-11-06T00:14:37.221Z,7.73
2022-11-06T00:19:39.323Z,7.50
2022-11-06T00:24:41.396Z,8.73
2022-11-06T00:29:43.566Z,10.13
2022-11-06T00:34:45.721Z,10.23
2022-11-06T00:39:47.968Z,10.27
2022-11-06T00:44:50.102Z,8.87
2022-11-06T00:49:52.365Z,11.03
2022-11-06T00:54:54.540Z,10.27
2022-11-06T00:59:56.726Z,13.10
2022-11-06T01:04:58.892Z,9.87
2022-11-06T01:10:01.219Z,10.40
2022-11-06T01:15:05.314Z,12.70
2022-11-06T01:20:08.187Z,8.63
2022-11-06T01:25:10.355Z,12.40
2022-11-06T01:30:13.031Z,12.67
2022-11-06T01:35:15.216Z,11.80
2022-11-06T01:40:17.434Z,10.80
2022-11-06T01:45:19.969Z,11.40
2022-11-06T01:50:22.746Z,11.80
2022-11-06T01:55:30.736Z,14.57
2022-11-06T02:00:33.431Z,12.60
2022-11-06T02:05:37.037Z,12.17
2022-11-06T02:10:40.307Z,12.07
2022-11-06T02:16:10.454Z,12.40
2022-11-06T02:21:47.636Z,13.65
2022-11-06T02:26:59.687Z,14.67
2022-11-06T02:32:06.921Z,12.77
2022-11-06T02:37:14.413Z,14.20
2022-11-06T02:42:34.258Z,10.17
2022-11-06T02:47:37.185Z,11.17
2022-11-06T02:52:43.702Z,16.17
2022-11-06T02:57:50.615Z,11.73
2022-11-06T03:03:18.068Z,10.87
2022-11-06T03:08:37.455Z,10.77
2022-11-06T03:13:51.630Z,8.73
2022-11-06T03:18:55.720Z,8.83
2022-11-06T03:24:06.224Z,8.60
2022-11-06T03:29:41.120Z,8.33
2022-11-06T03:34:49.408Z,6.87
2022-11-06T03:39:54.411Z,6.67
2022-11-06T03:45:00.254Z,9.23
2022-11-06T03:50:14.940Z,7.20
2022-11-06T03:55:29.017Z,7.13
2022-11-06T04:00:34.542Z,7.57
2022-11-06T04:05:41.864Z,6.67
2022-11-06T04:11:04.557Z,8.73
2022-11-06T04:16:09.167Z,7.57
2022-11-06T04:21:24.475Z,6.27
2022-11-06T04:26:37.960Z,6.33
2022-11-06T04:32:12.842Z,7.40
2022-11-06T04:37:23.048Z,5.67
2022-11-06T04:42:34.641Z,8.40
2022-11-06T04:47:37.840Z,7.97
2022-11-06T04:52:40.858Z,5.93
2022-11-06T04:57:43.242Z,6.13
2022-11-06T05:02:45.369Z,6.50
2022-11-06T05:07:47.527Z,6.97
2022-11-06T05:12:49.755Z,5.93
2022-11-06T05:17:51.896Z,6.57
2022-11-06T05:23:03.076Z,5.57
2022-11-06T05:28:07.334Z,8.30
2022-11-06T05:33:09.541Z,8.23
2022-11-06T05:38:14.868Z,6.47
2022-11-06T05:43:17.437Z,8.17
2022-11-06T05:48:19.986Z,7.50
2022-11-06T05:53:22.176Z,8.00
2022-11-06T05:58:24.418Z,6.47
2022-11-06T06:03:26.730Z,7.10
2022-11-06T06:08:28.844Z,7.63
2022-11-06T06:13:31.067Z,11.33
2022-11-06T06:18:33.271Z,7.10
2022-11-06T06:23:35.514Z,6.30
2022-11-06T06:28:37.745Z,6.83
2022-11-06T06:33:40.020Z,6.07
2022-11-06T06:38:43.222Z,6.70
2022-11-06T06:43:48.471Z,6.97
2022-11-06T06:48:50.764Z,10.07
2022-11-06T06:53:53.015Z,9.43
2022-11-06T06:58:55.552Z,11.20
2022-11-06T07:04:03.711Z,9.83
2022-11-06T07:09:06.532Z,8.30
2022-11-06T07:14:10.920Z,10.47
2022-11-06T07:19:13.148Z,15.73
2022-11-06T07:24:15.436Z,12.33
2022-11-06T07:29:17.631Z,11.00
2022-11-06T07:34:19.825Z,10.53
2022-11-06T07:39:22.023Z,12.23
2022-11-06T07:44:24.762Z,11.50
2022-11-06T07:49:26.984Z,13.57
2022-11-06T07:54:29.613Z,12.83
2022-11-06T07:59:31.751Z,18.20
2022-11-06T08:04:33.952Z,17.53
2022-11-06T08:09:36.326Z,17.17
2022-11-06T08:14:41.380Z,17.87
2022-11-06T08:20:02.546Z,14.57
2022-11-06T08:25:06.001Z,14.43
2022-11-06T08:30:08.812Z,23.03
2022-11-06T08:35:30.087Z,15.00
2022-11-06T08:40:32.716Z,22.10
2022-11-06T08:45:39.670Z,18.50
2022-11-06T08:50:42.302Z,22.03
2022-11-06T08:55:44.516Z,18.97
2022-11-06T09:00:46.803Z,17.73
2022-11-06T09:05:49.302Z,22.93
2022-11-06T09:10:57.195Z,22.53
2022-11-06T09:16:01.117Z,22.38
2022-11-06T09:21:03.400Z,21.03
2022-11-06T09:26:05.678Z,24.87
2022-11-06T09:31:08.447Z,23.73
2022-11-06T09:36:10.717Z,26.70
2022-11-06T09:41:19.635Z,26.03
2022-11-06T09:46:28.279Z,28.33
2022-11-06T09:51:51.566Z,21.40
2022-11-06T09:57:28.159Z,26.07
2022-11-06T10:02:40.103Z,22.17
2022-11-06T10:07:42.945Z,26.60
2022-11-06T10:13:19.777Z,24.80
2022-11-06T10:19:08.127Z,21.50
2022-11-06T10:24:22.040Z,23.63
2022-11-06T10:30:18.375Z,21.10
2022-11-06T10:35:26.782Z,21.43
2022-11-06T10:40:52.446Z,23.23
2022-11-06T10:46:10.931Z,19.50
2022-11-06T10:51:38.042Z,18.73
2022-11-06T10:56:56.792Z,20.93
2022-11-06T11:01:59.192Z,17.03
2022-11-06T11:07:21.347Z,18.70
2022-11-06T11:12:28.161Z,20.87
2022-11-06T11:17:30.454Z,21.50
2022-11-06T11:22:33.432Z,17.20
2022-11-06T11:27:39.056Z,14.43
2022-11-06T11:32:41.442Z,16.20
2022-11-06T11:37:43.726Z,17.87
2022-11-06T11:42:46.555Z,25.90
2022-11-06T11:47:51.770Z,15.57
2022-11-06T11:53:07.118Z,14.47
2022-11-06T11:58:37.613Z,21.90
2022-11-06T12:03:42.640Z,23.33
2022-11-06T12:08:50.751Z,13.37
2022-11-06T12:14:18.416Z,17.80
2022-11-06T12:19:22.491Z,34.13
2022-11-06T12:24:54.185Z,26.57
2022-11-06T12:30:22.823Z,18.03
2022-11-06T12:35:59.195Z,15.90
2022-11-06T12:41:23.276Z,14.57
2022-11-06T12:46:47.201Z,12.17
2022-11-06T12:51:56.434Z,16.27
2022-11-06T12:57:10.305Z,16.48
2022-11-06T13:02:32.910Z,13.53
2022-11-06T13:07:50.723Z,15.87
2022-11-06T13:13:05.656Z,15.63
2022-11-06T13:18:28.538Z,13.60
2022-11-06T13:23:41.266Z,16.07
2022-11-06T13:28:46.580Z,16.27
2022-11-06T13:33:54.730Z,14.60
2022-11-06T13:39:22.750Z,12.80
2022-11-06T13:44:25.272Z,16.73
2022-11-06T13:49:36.104Z,17.83
2022-11-06T13:55:12.763Z,18.10
2022-11-06T14:00:20.048Z,19.43
2022-11-06T14:05:40.767Z,22.00
2022-11-06T14:10:50.766Z,11.17
2022-11-06T14:16:27.022Z,12.50
2022-11-06T14:21:38.394Z,26.20
2022-11-06T14:26:45.976Z,14.23
2022-11-06T14:32:11.067Z,19.03
2022-11-06T14:37:19.451Z,11.20
2022-11-06T14:42:27.333Z,13.67
2022-11-06T14:47:35.222Z,9.23
2022-11-06T14:52:47.622Z,13.17
2022-11-06T14:57:53.348Z,11.87
2022-11-06T15:02:55.645Z,13.20
2022-11-06T15:08:06.675Z,10.87
2022-11-06T15:13:17.398Z,9.60
2022-11-06T15:18:23.839Z,10.50
2022-11-06T15:23:52.890Z,9.43
2022-11-06T15:29:07.394Z,9.47
2022-11-06T15:34:17.093Z,13.40
2022-11-06T15:39:42.111Z,11.73
2022-11-06T15:44:46.080Z,10.63
2022-11-06T15:49:48.541Z,10.30
2022-11-06T15:54:56.887Z,10.87
2022-11-06T16:00:18.881Z,9.10
2022-11-06T16:05:22.389Z,8.03
2022-11-06T16:10:24.967Z,10.97
2022-11-06T16:15:45.427Z,9.53
2022-11-06T16:20:51.531Z,11.30
2022-11-06T16:25:59.063Z,10.17
2022-11-06T16:31:06.768Z,11.07
2022-11-06T16:36:11.934Z,10.57
2022-11-06T16:41:37.335Z,9.03
2022-11-06T16:47:14.764Z,12.30
2022-11-06T16:52:35.888Z,10.13
2022-11-06T16:58:00.044Z,11.47
2022-11-06T17:03:06.360Z,11.80
2022-11-06T17:08:39.730Z,9.37
2022-11-06T17:13:43.851Z,11.43
2022-11-06T17:18:46.364Z,11.03
2022-11-06T17:23:49.328Z,9.23
2022-11-06T17:28:52.695Z,10.20
2022-11-06T17:33:57.935Z,10.77
2022-11-06T17:39:00.570Z,10.73
2022-11-06T17:44:07.368Z,12.83
2022-11-06T17:49:15.807Z,13.10
2022-11-06T17:54:39.610Z,12.23
2022-11-06T17:59:41.861Z,10.43
2022-11-06T18:04:46.513Z,10.63
2022-11-06T18:10:08.197Z,11.70
2022-11-06T18:15:10.988Z,13.97
2022-11-06T18:20:13.251Z,13.43
2022-11-06T18:25:15.510Z,12.97
2022-11-06T18:30:17.957Z,13.33
2022-11-06T18:35:38.857Z,12.93
2022-11-06T18:40:48.896Z,11.53
2022-11-06T18:45:56.707Z,13.40
2022-11-06T18:51:06.527Z,14.97
2022-11-06T18:56:10.169Z,14.27
2022-11-06T19:01:14.657Z,16.17
2022-11-06T19:06:18.725Z,13.00
2022-11-06T19:11:21.136Z,13.73
2022-11-06T19:16:23.540Z,13.73
2022-11-06T19:21:25.880Z,15.33
2022-11-06T19:26:50.568Z,17.63
2022-11-06T19:31:55.403Z,17.83
2022-11-06T19:36:58.238Z,14.30
2022-11-06T19:42:01.280Z,16.17
2022-11-06T19:47:04.330Z,14.00
2022-11-06T19:52:41.673Z,15.33
2022-11-06T19:57:47.567Z,15.67
2022-11-06T20:02:51.063Z,15.13
2022-11-06T20:07:53.576Z,12.93
2022-11-06T20:12:55.773Z,15.17
2022-11-06T20:17:57.971Z,16.80
2022-11-06T20:23:18.951Z,13.90
2022-11-06T20:28:21.682Z,15.40
2022-11-06T20:33:24.081Z,13.17
2022-11-06T20:38:46.495Z,16.70
2022-11-06T20:43:49.193Z,13.53
2022-11-06T20:48:51.855Z,13.57
2022-11-06T20:53:54.465Z,13.13
2022-11-06T20:58:57.524Z,13.47
2022-11-06T21:03:59.860Z,11.47
2022-11-06T21:09:02.039Z,12.13
2022-11-06T21:14:04.407Z,9.53
2022-11-06T21:19:06.705Z,11.70
2022-11-06T21:24:09.059Z,11.67
2022-11-06T21:29:11.594Z,9.87
2022-11-06T21:34:13.740Z,8.43
2022-11-06T21:39:18.947Z,10.63
2022-11-06T21:44:21.316Z,10.57
2022-11-06T21:49:23.557Z,9.90
2022-11-06T21:54:44.088Z,14.20
2022-11-06T21:59:46.293Z,11.23
2022-11-06T22:04:48.523Z,10.50
2022-11-06T22:09:52.287Z,13.87
2022-11-06T22:14:55.345Z,8.27
2022-11-06T22:19:59.651Z,13.00
2022-11-06T22:25:01.910Z,9.97
2022-11-06T22:30:05.694Z,12.30
2022-11-06T22:35:08.232Z,12.13
2022-11-06T22:40:11.125Z,11.93
2022-11-06T22:45:14.318Z,23.47
2022-11-06T22:50:16.552Z,11.23
2022-11-06T22:55:18.604Z,12.07
2022-11-06T23:00:22.527Z,10.80
2022-11-06T23:05:24.697Z,11.20
2022-11-06T23:10:29.567Z,8.90
2022-11-06T23:15:32.710Z,12.07
2022-11-06T23:20:34.911Z,11.10
2022-11-06T23:25:37.047Z,15.33
2022-11-06T23:30:39.374Z,11.47
2022-11-06T23:35:41.515Z,11.40
2022-11-06T23:40:43.612Z,17.87
2022-11-06T23:45:48.527Z,13.77
2022-11-06T23:51:09.108Z,14.00
2022-11-06T23:56:13.182Z,12.03
